Time;durP1;ratioP1;P1;durP2;ratioP2;P2;SDS_P1;SDS_P2;PMS_P1;PMS_P2;Temp;Humidity;BMP_temperature;BMP_pressure;BME280_temperature;BME280_humidity;BME280_pressure;Samples;Min_cycle;Max_cycle;Signal;HPM_P1;HPM_P2
2022/11/27 00:02:23;;;;;;;48.80;14.90;;;4.90;99.90;;;;;;5047016;28;20812;-60
2022/11/27 00:04:51;;;;;;;57.50;18.03;;;4.90;99.90;;;;;;5041970;28;20816;-60
2022/11/27 00:07:17;;;;;;;52.87;16.80;;;4.70;99.90;;;;;;5039430;28;20971;-60
2022/11/27 00:09:44;;;;;;;45.53;11.97;;;4.70;99.90;;;;;;5047101;28;20484;-60
2022/11/27 00:12:11;;;;;;;31.20;12.07;;;4.70;99.90;;;;;;5040743;28;20488;-60
2022/11/27 00:14:37;;;;;;;31.37;10.00;;;4.80;99.90;;;;;;5041079;28;20687;-60
2022/11/27 00:17:04;;;;;;;36.50;13.30;;;4.90;99.90;;;;;;5043299;28;21363;-60
2022/11/27 00:19:31;;;;;;;30.23;12.33;;;5.00;99.90;;;;;;5051918;28;20570;-59
2022/11/27 00:21:59;;;;;;;45.27;14.07;;;5.00;99.90;;;;;;5047370;28;20483;-60
2022/11/27 00:24:26;;;;;;;34.80;11.30;;;5.10;99.90;;;;;;5055961;28;20507;-60
2022/11/27 00:26:52;;;;;;;56.27;17.17;;;5.10;99.90;;;;;;5045455;28;20487;-60
2022/11/27 00:29:19;;;;;;;30.70;10.43;;;5.20;99.90;;;;;;5049128;28;20476;-59
2022/11/27 00:31:46;;;;;;;44.03;13.90;;;5.10;99.90;;;;;;5051502;28;20487;-60
2022/11/27 00:34:13;;;;;;;37.07;12.53;;;5.20;99.90;;;;;;5051654;28;20483;-60
2022/11/27 00:36:39;;;;;;;40.60;11.73;;;5.20;99.90;;;;;;5047365;28;20479;-60
2022/11/27 00:39:07;;;;;;;28.73;11.83;;;5.20;99.90;;;;;;5050254;28;20498;-60
2022/11/27 00:41:34;;;;;;;30.00;12.00;;;5.30;99.90;;;;;;5048049;28;20798;-60
2022/11/27 00:44:01;;;;;;;51.50;13.03;;;5.30;99.90;;;;;;5050500;28;20486;-60
2022/11/27 00:46:30;;;;;;;32.27;11.73;;;5.30;99.90;;;;;;5043905;28;20494;-60
2022/11/27 00:48:57;;;;;;;46.90;15.43;;;5.30;99.90;;;;;;5051113;28;20888;-60
2022/11/27 00:51:25;;;;;;;57.87;10.90;;;5.00;99.90;;;;;;5051246;28;20478;-60
2022/11/27 00:53:52;;;;;;;47.93;15.50;;;4.90;99.90;;;;;;5047349;28;20473;-60
2022/11/27 00:56:22;;;;;;;43.03;12.20;;;4.70;99.90;;;;;;5056472;28;20483;-60
2022/11/27 00:58:50;;;;;;;51.90;13.47;;;4.60;99.90;;;;;;5050184;28;20475;-60
2022/11/27 01:01:19;;;;;;;35.87;9.47;;;4.50;99.90;;;;;;5051447;28;20498;-61
2022/11/27 01:03:46;;;;;;;28.10;9.83;;;;;;;;;;5051241;28;20483;-60
2022/11/27 01:06:14;;;;;;;26.13;8.60;;;4.50;99.90;;;;;;5048625;28;20861;-60
2022/11/27 01:08:41;;;;;;;29.70;10.07;;;4.60;99.90;;;;;;5051339;28;20678;-60
2022/11/27 01:11:12;;;;;;;36.30;11.87;;;4.60;99.90;;;;;;5049816;28;20471;-59
2022/11/27 01:13:41;;;;;;;31.30;11.13;;;4.80;99.90;;;;;;5051834;28;20479;-60
2022/11/27 01:16:10;;;;;;;288.73;91.07;;;4.90;99.90;;;;;;5033851;28;20489;-61
2022/11/27 01:18:38;;;;;;;68.63;23.60;;;5.00;99.90;;;;;;5047002;28;20486;-60
2022/11/27 01:21:06;;;;;;;46.37;16.43;;;5.10;99.90;;;;;;5047820;28;20484;-60
2022/11/27 01:23:33;;;;;;;43.90;14.10;;;5.20;99.90;;;;;;5051189;28;20970;-60
2022/11/27 01:26:01;;;;;;;50.20;14.30;;;5.20;99.90;;;;;;5048185;28;20483;-59
2022/11/27 01:28:27;;;;;;;38.77;11.70;;;5.20;99.90;;;;;;5045123;28;20869;-59
2022/11/27 01:30:56;;;;;;;40.53;14.63;;;5.20;99.90;;;;;;5052263;28;20467;-60
2022/11/27 01:33:22;;;;;;;30.93;11.30;;;5.20;99.90;;;;;;5050218;28;20791;-60
2022/11/27 01:36:00;;;;;;;51.70;17.03;;;5.20;99.90;;;;;;5044389;28;20496;-60
2022/11/27 01:38:28;;;;;;;27.80;11.93;;;5.30;99.90;;;;;;5041192;28;20487;-60
2022/11/27 01:40:59;;;;;;;67.70;19.20;;;5.40;99.90;;;;;;5045637;28;20971;-60
2022/11/27 01:43:40;;;;;;;49.40;15.80;;;5.40;99.90;;;;;;5045816;28;20475;-60
2022/11/27 01:46:17;;;;;;;34.97;12.30;;;5.50;99.90;;;;;;5035316;28;20467;-60
2022/11/27 01:48:45;;;;;;;45.33;14.20;;;5.50;99.90;;;;;;5048008;28;20467;-60
2022/11/27 01:51:12;;;;;;;30.03;9.73;;;5.50;99.90;;;;;;5051119;28;20550;-59
2022/11/27 01:53:39;;;;;;;41.77;13.53;;;5.40;99.90;;;;;;5043619;28;20799;-60
2022/11/27 01:56:08;;;;;;;37.37;12.77;;;5.40;99.90;;;;;;5059715;28;20483;-60
2022/11/27 01:58:36;;;;;;;33.20;12.80;;;5.40;99.90;;;;;;5064920;28;21075;-60
2022/11/27 02:01:02;;;;;;;30.43;11.23;;;5.40;99.90;;;;;;5049974;28;20486;-60
2022/11/27 02:03:31;;;;;;;30.67;12.00;;;5.40;99.90;;;;;;5047039;28;20479;-60
2022/11/27 02:05:58;;;;;;;44.23;14.13;;;6.50;99.90;;;;;;5045685;28;20475;-60
2022/11/27 02:08:25;;;;;;;34.07;12.60;;;5.40;99.90;;;;;;5050096;28;21086;-60
2022/11/27 02:10:55;;;;;;;45.87;17.67;;;5.50;99.90;;;;;;5048921;28;20468;-60
2022/11/27 02:13:30;;;;;;;30.27;11.80;;;5.50;99.90;;;;;;5048772;28;20947;-60
2022/11/27 02:16:07;;;;;;;40.80;14.40;;;5.50;99.90;;;;;;5041532;28;20501;-60
2022/11/27 02:18:43;;;;;;;52.20;14.87;;;5.60;99.90;;;;;;5051113;28;20475;-60
2022/11/27 02:21:15;;;;;;;20.83;10.20;;;5.60;99.90;;;;;;5038901;28;20501;-60
2022/11/27 02:24:05;;;;;;;25.50;11.30;;;5.60;99.90;;;;;;5029216;28;20538;-60
2022/11/27 02:26:51;;;;;;;28.57;11.83;;;5.60;99.90;;;;;;5045863;28;20674;-60
2022/11/27 02:29:22;;;;;;;33.67;12.50;;;5.70;99.90;;;;;;5048533;28;20471;-60
2022/11/27 02:31:57;;;;;;;48.57;18.23;;;5.70;99.90;;;;;;5048615;28;20479;-59
2022/11/27 02:34:27;;;;;;;35.03;11.30;;;5.90;99.90;;;;;;5047968;28;20475;-61
2022/11/27 02:37:00;;;;;;;38.90;15.40;;;5.90;99.90;;;;;;5043064;28;20484;-59
2022/11/27 02:39:32;;;;;;;33.87;13.07;;;6.00;99.90;;;;;;5046249;28;20485;-60
2022/11/27 02:42:05;;;;;;;48.30;17.23;;;6.10;99.90;;;;;;5046784;28;20482;-60
2022/11/27 02:45:10;;;;;;;32.93;11.80;;;6.10;99.90;;;;;;5024116;28;20483;-60
2022/11/27 02:47:39;;;;;;;25.30;9.43;;;6.00;99.90;;;;;;5040705;28;20480;-60
2022/11/27 02:50:09;;;;;;;30.90;11.13;;;6.10;99.90;;;;;;5037173;28;20891;-59
2022/11/27 02:52:37;;;;;;;24.77;10.10;;;6.00;99.90;;;;;;5037799;28;20482;-59
2022/11/27 02:55:08;;;;;;;23.90;10.20;;;5.90;99.90;;;;;;5049853;28;20998;-60
2022/11/27 02:57:37;;;;;;;22.80;9.00;;;5.90;99.90;;;;;;5046111;28;20471;-60
2022/11/27 03:00:05;;;;;;;27.23;11.03;;;5.80;99.90;;;;;;5048466;28;20675;-59
2022/11/27 03:02:40;;;;;;;28.63;8.80;;;5.90;99.90;;;;;;5045577;28;20488;-60
2022/11/27 03:05:13;;;;;;;19.23;7.60;;;5.80;99.90;;;;;;5037241;28;20983;-59
2022/11/27 03:07:44;;;;;;;26.30;10.73;;;5.70;99.90;;;;;;5044218;28;20972;-60
2022/11/27 03:10:18;;;;;;;27.67;9.73;;;5.70;99.90;;;;;;5052512;28;20478;-60
2022/11/27 03:12:45;;;;;;;26.93;10.60;;;5.70;99.90;;;;;;5045411;28;20472;-59
2022/11/27 03:15:12;;;;;;;31.90;9.43;;;5.60;99.90;;;;;;5051116;28;21083;-60
2022/11/27 03:17:53;;;;;;;31.80;12.27;;;5.70;99.90;;;;;;5047256;28;20621;-59
2022/11/27 03:20:24;;;;;;;34.33;11.00;;;5.80;99.90;;;;;;5043456;28;21355;-60
2022/11/27 03:22:52;;;;;;;89.20;30.23;;;5.90;99.90;;;;;;5040083;28;20594;-60
2022/11/27 03:25:19;;;;;;;23.53;10.10;;;5.90;99.90;;;;;;5058453;28;20487;-60
2022/11/27 03:27:50;;;;;;;30.43;9.90;;;6.00;99.90;;;;;;5047559;28;20978;-59
2022/11/27 03:30:17;;;;;;;21.73;8.53;;;6.00;99.90;;;;;;5051619;28;20476;-59
2022/11/27 03:32:45;;;;;;;35.57;11.77;;;6.00;99.90;;;;;;5047189;28;20849;-60
2022/11/27 03:35:16;;;;;;;31.60;9.83;;;6.10;99.90;;;;;;5052901;28;20482;-60
2022/11/27 03:37:43;;;;;;;24.30;9.47;;;6.10;99.90;;;;;;5044718;28;20496;-60
2022/11/27 03:40:10;;;;;;;24.43;9.13;;;6.10;99.90;;;;;;5049938;28;20491;-60
2022/11/27 03:42:49;;;;;;;42.83;12.67;;;4.90;99.90;;;;;;5036175;28;20487;-60
2022/11/27 03:45:22;;;;;;;38.83;13.20;;;6.20;99.90;;;;;;5026339;28;20840;-60
2022/11/27 03:48:04;;;;;;;47.20;14.80;;;6.20;99.90;;;;;;5027642;28;20492;-60
2022/11/27 03:50:40;;;;;;;38.63;13.07;;;6.20;99.90;;;;;;5028528;28;21031;-60
2022/11/27 03:53:16;;;;;;;28.53;9.60;;;6.20;99.90;;;;;;5031399;28;20848;-59
2022/11/27 03:55:49;;;;;;;44.50;13.17;;;6.20;99.90;;;;;;5021546;28;20488;-60
2022/11/27 03:58:21;;;;;;;28.97;9.10;;;5.60;99.90;;;;;;5032704;28;21012;-60
2022/11/27 04:00:51;;;;;;;38.03;12.03;;;6.20;99.90;;;;;;5035260;28;20487;-60
2022/11/27 04:03:24;;;;;;;27.40;9.77;;;6.30;99.90;;;;;;5033191;28;20485;-60
2022/11/27 04:05:51;;;;;;;75.43;17.80;;;6.40;99.90;;;;;;5034525;28;21310;-60
2022/11/27 04:08:18;;;;;;;24.03;8.20;;;6.40;99.90;;;;;;5030631;28;20752;-60
2022/11/27 04:10:44;;;;;;;23.63;9.17;;;4.70;99.90;;;;;;5045603;28;21010;-60
2022/11/27 04:13:11;;;;;;;34.57;11.70;;;6.40;99.90;;;;;;5035342;28;20460;-60
2022/11/27 04:15:38;;;;;;;43.07;13.30;;;6.40;99.90;;;;;;5033635;28;20555;-60
2022/11/27 04:18:05;;;;;;;30.90;9.63;;;6.50;99.90;;;;;;5036992;28;20476;-60
2022/11/27 04:20:33;;;;;;;24.67;10.10;;;6.60;99.90;;;;;;5035504;28;20492;-60
2022/11/27 04:23:00;;;;;;;34.40;12.67;;;6.60;99.90;;;;;;5031529;28;20488;-60
2022/11/27 04:25:27;;;;;;;17.17;9.40;;;6.60;99.90;;;;;;5034394;28;20496;-60
2022/11/27 04:27:54;;;;;;;39.73;14.60;;;6.70;99.90;;;;;;5034990;28;20472;-60
2022/11/27 04:30:21;;;;;;;22.70;10.57;;;6.70;99.90;;;;;;5034145;28;20487;-60
2022/11/27 04:32:48;;;;;;;24.33;10.80;;;6.70;99.90;;;;;;5030567;28;20476;-60
2022/11/27 04:35:15;;;;;;;26.57;11.37;;;6.70;99.90;;;;;;5035691;28;20503;-61
2022/11/27 04:37:43;;;;;;;33.60;11.07;;;6.70;99.90;;;;;;5033321;28;20468;-60
2022/11/27 04:40:10;;;;;;;24.27;10.13;;;6.70;99.90;;;;;;5037862;28;20472;-60
2022/11/27 04:42:37;;;;;;;32.50;12.67;;;6.70;99.90;;;;;;5033449;28;20484;-60
2022/11/27 04:45:04;;;;;;;30.67;13.07;;;7.70;99.90;;;;;;5034299;28;20622;-60
2022/11/27 04:47:31;;;;;;;41.47;11.37;;;6.70;99.90;;;;;;5033450;28;20479;-60
2022/11/27 04:49:58;;;;;;;39.17;13.60;;;6.70;99.90;;;;;;5036648;28;20472;-60
2022/11/27 04:52:25;;;;;;;33.30;12.27;;;6.70;99.90;;;;;;5036051;28;20480;-61
2022/11/27 04:54:53;;;;;;;39.23;14.87;;;6.60;99.90;;;;;;5035216;28;20960;-60
2022/11/27 04:57:19;;;;;;;31.70;12.93;;;6.50;99.90;;;;;;5030517;28;20484;-60
2022/11/27 04:59:46;;;;;;;46.20;13.77;;;6.50;99.90;;;;;;5034374;28;20480;-60
2022/11/27 05:02:13;;;;;;;32.50;12.10;;;6.50;99.90;;;;;;5034118;28;20875;-60
2022/11/27 05:04:39;;;;;;;39.47;14.17;;;6.60;99.90;;;;;;5038376;28;20480;-61
2022/11/27 05:07:06;;;;;;;27.43;10.70;;;6.70;99.90;;;;;;5036546;28;20480;-61
2022/11/27 05:09:33;;;;;;;25.23;10.47;;;6.80;99.90;;;;;;5038507;28;20701;-60
2022/11/27 05:12:01;;;;;;;41.93;15.10;;;6.80;99.90;;;;;;5038393;28;20480;-60
2022/11/27 05:14:28;;;;;;;25.20;9.37;;;6.90;99.90;;;;;;5038814;28;20531;-61
2022/11/27 05:16:58;;;;;;;38.23;15.30;;;6.90;99.90;;;;;;5038467;28;20535;-60
2022/11/27 05:19:26;;;;;;;23.33;10.67;;;6.90;99.90;;;;;;5041221;28;20491;-60
2022/11/27 05:21:53;;;;;;;40.27;17.33;;;6.90;99.90;;;;;;5038059;28;20518;-59
2022/11/27 05:24:22;;;;;;;27.20;12.10;;;6.90;99.90;;;;;;5048977;28;20868;-60
2022/11/27 05:26:49;;;;;;;31.97;13.37;;;6.90;99.90;;;;;;5036630;28;20487;-60
2022/11/27 05:29:17;;;;;;;26.20;11.63;;;6.90;99.90;;;;;;5035760;28;20487;-60
2022/11/27 05:31:45;;;;;;;37.73;13.07;;;7.00;99.90;;;;;;5038093;28;21072;-60
2022/11/27 05:34:11;;;;;;;27.13;11.50;;;7.00;99.90;;;;;;5039269;28;20480;-60
2022/11/27 05:36:38;;;;;;;26.43;12.60;;;7.00;99.90;;;;;;5036862;28;20476;-60
2022/11/27 05:39:07;;;;;;;32.30;12.53;;;7.00;99.90;;;;;;5037895;28;20488;-60
2022/11/27 05:41:34;;;;;;;23.30;11.87;;;7.10;99.90;;;;;;5038140;28;20480;-61
2022/11/27 05:44:00;;;;;;;38.23;15.90;;;7.10;99.90;;;;;;5036983;28;20476;-62
2022/11/27 05:46:29;;;;;;;29.43;11.23;;;7.00;99.90;;;;;;5035515;28;20480;-61
2022/11/27 05:48:55;;;;;;;38.57;16.20;;;7.00;99.90;;;;;;5037787;28;20552;-61
2022/11/27 05:51:22;;;;;;;25.07;11.63;;;6.90;99.90;;;;;;5038510;28;20484;-61
2022/11/27 05:53:49;;;;;;;43.87;15.90;;;6.90;99.90;;;;;;5036877;28;20484;-61
2022/11/27 05:56:17;;;;;;;28.57;11.73;;;6.90;99.90;;;;;;5034471;28;20478;-61
2022/11/27 05:58:47;;;;;;;33.60;14.53;;;7.00;99.90;;;;;;5023963;28;20479;-61
2022/11/27 06:01:15;;;;;;;36.80;12.17;;;7.00;99.90;;;;;;5035533;28;20512;-61
2022/11/27 06:03:43;;;;;;;28.90;10.63;;;7.00;99.90;;;;;;5037381;28;20839;-61
2022/11/27 06:06:13;;;;;;;36.03;12.93;;;7.00;99.90;;;;;;5036209;28;20496;-61
2022/11/27 06:08:40;;;;;;;38.97;13.80;;;7.00;99.90;;;;;;5036792;28;20503;-62
2022/11/27 06:11:08;;;;;;;30.13;13.80;;;7.00;99.90;;;;;;5039760;28;20485;-61
2022/11/27 06:13:35;;;;;;;33.90;11.77;;;7.10;99.90;;;;;;5040257;28;21047;-61
2022/11/27 06:16:06;;;;;;;30.50;14.20;;;7.10;99.90;;;;;;5037008;28;20493;-61
2022/11/27 06:18:33;;;;;;;38.97;14.80;;;7.20;99.90;;;;;;5037714;28;20485;-61
2022/11/27 06:21:05;;;;;;;28.00;14.23;;;7.10;99.90;;;;;;5039497;28;20785;-61
2022/11/27 06:23:31;;;;;;;34.93;12.90;;;7.20;99.90;;;;;;5039742;28;20476;-61
2022/11/27 06:25:58;;;;;;;30.30;13.87;;;7.20;99.90;;;;;;5037276;28;20485;-61
2022/11/27 06:28:25;;;;;;;22.30;11.80;;;7.20;99.90;;;;;;5038537;28;20485;-61
2022/11/27 06:30:52;;;;;;;37.20;16.37;;;7.30;99.90;;;;;;5038693;28;20866;-61
2022/11/27 06:33:18;;;;;;;36.33;17.23;;;7.20;99.90;;;;;;5039786;28;20483;-61
2022/11/27 06:35:46;;;;;;;46.63;20.40;;;7.30;99.90;;;;;;5034053;28;20492;-61
2022/11/27 06:38:14;;;;;;;31.30;15.50;;;7.30;99.90;;;;;;5036885;28;20495;-61
2022/11/27 06:40:40;;;;;;;41.33;19.17;;;7.30;99.90;;;;;;5037580;28;20499;-61
2022/11/27 06:43:07;;;;;;;33.83;15.20;;;7.40;99.90;;;;;;5036296;28;20492;-61
2022/11/27 06:45:34;;;;;;;32.80;16.97;;;7.20;99.90;;;;;;5035682;28;20483;-61
2022/11/27 06:48:01;;;;;;;39.20;14.83;;;7.00;99.90;;;;;;5032545;28;20487;-61
2022/11/27 06:50:27;;;;;;;38.53;13.73;;;6.90;99.90;;;;;;5032948;28;20467;-60
2022/11/27 06:52:54;;;;;;;41.13;18.60;;;7.00;99.90;;;;;;5042171;28;20916;-61
2022/11/27 06:55:22;;;;;;;32.03;16.73;;;7.00;99.90;;;;;;5037176;28;20496;-61
2022/11/27 06:57:50;;;;;;;34.47;13.50;;;7.10;99.90;;;;;;5033038;28;20873;-61
2022/11/27 07:00:18;;;;;;;27.37;14.40;;;7.10;99.90;;;;;;5037124;28;20473;-61
2022/11/27 07:02:45;;;;;;;33.97;15.43;;;7.20;99.90;;;;;;5035339;28;20622;-61
2022/11/27 07:05:11;;;;;;;36.90;15.30;;;7.30;99.90;;;;;;5036518;28;20845;-61
2022/11/27 07:07:38;;;;;;;30.57;14.37;;;7.30;99.90;;;;;;5035076;28;20568;-61
2022/11/27 07:10:06;;;;;;;32.40;16.50;;;7.20;99.90;;;;;;5036896;28;21375;-61
2022/11/27 07:12:34;;;;;;;40.73;14.73;;;7.20;99.90;;;;;;5036384;28;20480;-60
2022/11/27 07:15:01;;;;;;;44.10;17.10;;;7.20;99.90;;;;;;5033422;28;20860;-60
2022/11/27 07:17:28;;;;;;;34.97;15.20;;;7.20;99.90;;;;;;5028144;28;20502;-60
2022/11/27 07:19:54;;;;;;;42.83;18.70;;;7.30;99.90;;;;;;5031281;28;20476;-60
2022/11/27 07:22:21;;;;;;;38.97;16.80;;;7.30;99.90;;;;;;5032456;28;20664;-61
2022/11/27 07:24:48;;;;;;;27.27;13.57;;;7.30;99.90;;;;;;5033297;28;21123;-60
2022/11/27 07:27:14;;;;;;;35.53;12.63;;;7.30;99.90;;;;;;5034951;28;20492;-61
2022/11/27 07:29:42;;;;;;;34.80;16.60;;;7.30;99.90;;;;;;5036908;28;20828;-60
2022/11/27 07:32:09;;;;;;;25.27;13.90;;;7.30;99.90;;;;;;5033941;28;20515;-60
2022/11/27 07:34:36;;;;;;;32.47;13.30;;;7.30;99.90;;;;;;5037230;28;20484;-60
2022/11/27 07:37:02;;;;;;;41.33;16.27;;;7.40;99.90;;;;;;5037915;28;20490;-61
2022/11/27 07:39:29;;;;;;;31.37;13.67;;;7.40;99.90;;;;;;5038461;28;20476;-60
2022/11/27 07:41:56;;;;;;;45.23;16.03;;;7.50;99.90;;;;;;5039353;28;20472;-60
2022/11/27 07:44:23;;;;;;;36.23;14.03;;;7.40;99.90;;;;;;5039270;28;21328;-60
2022/11/27 07:46:51;;;;;;;45.27;20.83;;;7.40;99.90;;;;;;5036960;28;20481;-60
2022/11/27 07:49:17;;;;;;;35.03;12.57;;;7.40;99.90;;;;;;5036453;28;21071;-60
2022/11/27 07:51:44;;;;;;;36.53;14.93;;;7.40;99.90;;;;;;5038469;28;20487;-59
2022/11/27 07:54:11;;;;;;;31.50;14.20;;;7.40;99.90;;;;;;5037548;28;20843;-60
2022/11/27 07:56:38;;;;;;;35.00;13.20;;;7.20;99.90;;;;;;5036394;28;20542;-60
2022/11/27 07:59:04;;;;;;;30.80;15.23;;;7.30;99.90;;;;;;5035287;28;20480;-60
2022/11/27 08:01:31;;;;;;;38.13;17.33;;;7.40;99.90;;;;;;5035455;28;20838;-61
2022/11/27 08:03:59;;;;;;;44.67;17.33;;;7.30;99.90;;;;;;5033295;28;20471;-60
2022/11/27 08:06:27;;;;;;;38.13;16.77;;;7.20;99.90;;;;;;5042121;28;20832;-60
2022/11/27 08:08:55;;;;;;;49.83;20.23;;;7.30;99.90;;;;;;5033223;28;21015;-60
2022/11/27 08:11:24;;;;;;;36.40;14.83;;;7.40;99.90;;;;;;5035308;28;20479;-60
2022/11/27 08:13:56;;;;;;;33.13;15.57;;;7.40;99.90;;;;;;5035134;28;20484;-60
2022/11/27 08:16:23;;;;;;;49.57;13.60;;;;;;;;;;5033102;28;20484;-60
2022/11/27 08:18:49;;;;;;;32.27;11.37;;;7.70;99.90;;;;;;5037215;28;20484;-60
2022/11/27 08:21:18;;;;;;;34.57;13.60;;;7.20;99.90;;;;;;5034992;28;20484;-60
2022/11/27 08:23:45;;;;;;;34.87;14.47;;;7.10;99.90;;;;;;5034614;28;20499;-60
2022/11/27 08:26:12;;;;;;;31.37;13.23;;;7.10;99.90;;;;;;5032893;28;20480;-59
2022/11/27 08:28:40;;;;;;;37.10;15.90;;;7.20;99.90;;;;;;5034148;28;20484;-60
2022/11/27 08:31:09;;;;;;;27.67;13.00;;;7.20;99.90;;;;;;5035705;28;21088;-61
2022/11/27 08:33:36;;;;;;;37.73;15.47;;;7.10;99.90;;;;;;5034057;28;20960;-60
2022/11/27 08:36:04;;;;;;;54.37;20.33;;;7.10;99.90;;;;;;5033714;28;20841;-60
2022/11/27 08:38:32;;;;;;;33.30;14.67;;;7.10;99.90;;;;;;5034982;28;20488;-60
2022/11/27 08:41:00;;;;;;;58.80;20.90;;;7.10;99.90;;;;;;5037562;28;20479;-61
2022/11/27 08:43:28;;;;;;;34.97;15.70;;;7.20;99.90;;;;;;5037390;28;20487;-61
2022/11/27 08:45:55;;;;;;;42.23;17.90;;;7.40;99.90;;;;;;5039990;28;20490;-61
2022/11/27 08:48:23;;;;;;;29.00;13.97;;;7.40;99.90;;;;;;5038344;28;20487;-60
2022/11/27 08:50:50;;;;;;;38.80;17.07;;;7.40;99.90;;;;;;5039520;28;20484;-60
2022/11/27 08:53:17;;;;;;;41.50;15.03;;;7.50;99.90;;;;;;5038199;28;20488;-60
2022/11/27 08:55:46;;;;;;;37.90;14.60;;;7.60;99.90;;;;;;5037871;28;20496;-60
2022/11/27 08:58:13;;;;;;;35.93;14.03;;;7.80;99.90;;;;;;5039897;28;20480;-60
2022/11/27 09:00:40;;;;;;;38.43;13.10;;;7.90;99.90;;;;;;5039828;28;20852;-60
2022/11/27 09:03:07;;;;;;;36.93;14.97;;;8.10;99.90;;;;;;5040824;28;20472;-60
2022/11/27 09:05:34;;;;;;;47.73;18.80;;;8.10;99.90;;;;;;5039642;28;20484;-60
2022/11/27 09:08:04;;;;;;;36.23;12.17;;;7.80;99.90;;;;;;5039782;28;20748;-60
2022/11/27 09:10:31;;;;;;;29.37;13.20;;;7.70;99.90;;;;;;5039363;28;20476;-60
2022/11/27 09:12:59;;;;;;;45.03;18.00;;;7.50;99.90;;;;;;5040235;28;20472;-60
2022/11/27 09:15:26;;;;;;;34.43;13.77;;;7.30;99.90;;;;;;5040320;28;20468;-60
2022/11/27 09:17:52;;;;;;;48.43;20.53;;;7.10;99.90;;;;;;5045076;28;20515;-61
2022/11/27 09:20:19;;;;;;;36.90;15.23;;;7.10;99.90;;;;;;5033502;28;20849;-60
2022/11/27 09:22:49;;;;;;;46.00;17.10;;;7.30;99.90;;;;;;5044774;28;20980;-60
2022/11/27 09:25:16;;;;;;;33.83;14.77;;;7.50;99.90;;;;;;5039534;28;20503;-60
2022/11/27 09:27:43;;;;;;;40.23;15.00;;;7.60;99.90;;;;;;5035705;28;20748;-60
2022/11/27 09:30:12;;;;;;;41.90;15.80;;;7.60;99.90;;;;;;5037500;28;20467;-60
2022/11/27 09:32:39;;;;;;;29.13;13.37;;;7.50;99.90;;;;;;5037490;28;20558;-60
2022/11/27 09:35:06;;;;;;;31.93;14.67;;;7.50;99.90;;;;;;5038099;28;20476;-61
2022/11/27 09:37:33;;;;;;;34.73;13.13;;;7.50;99.90;;;;;;5036301;28;20468;-60
2022/11/27 09:39:59;;;;;;;41.83;16.40;;;7.60;99.90;;;;;;5036264;28;20476;-61
2022/11/27 09:42:44;;;;;;;31.73;13.27;;;7.70;99.90;;;;;;5036652;28;20488;-61
2022/11/27 09:45:16;;;;;;;28.87;13.60;;;7.80;99.90;;;;;;5038539;28;20503;-60
2022/11/27 09:47:48;;;;;;;36.00;13.47;;;8.00;99.90;;;;;;5037437;28;20519;-61
2022/11/27 09:50:17;;;;;;;29.33;14.17;;;8.10;99.90;;;;;;5037933;28;20495;-60
2022/11/27 09:52:48;;;;;;;33.27;15.77;;;8.10;99.90;;;;;;5037985;28;20473;-60
2022/11/27 09:55:20;;;;;;;31.23;12.20;;;8.10;99.90;;;;;;5039381;28;20508;-60
2022/11/27 09:57:55;;;;;;;36.90;16.37;;;8.30;99.90;;;;;;5035951;28;20480;-61
2022/11/27 10:00:23;;;;;;;26.93;13.10;;;8.40;99.90;;;;;;5038792;28;20491;-60
2022/11/27 10:02:50;;;;;;;30.73;14.80;;;8.30;99.90;;;;;;5030046;28;21005;-60
2022/11/27 10:05:21;;;;;;;33.80;14.20;;;8.40;99.90;;;;;;5033576;28;20476;-61
2022/11/27 10:08:17;;;;;;;32.50;15.27;;;8.40;99.90;;;;;;5035448;28;20485;-61
2022/11/27 10:10:53;;;;;;;32.17;12.90;;;8.40;99.90;;;;;;5028524;28;20863;-60
2022/11/27 10:13:43;;;;;;;29.73;14.17;;;8.50;99.90;;;;;;5036271;28;20480;-60
2022/11/27 10:16:19;;;;;;;27.70;13.90;;;8.40;99.90;;;;;;5029961;28;20480;-60
2022/11/27 10:18:51;;;;;;;34.83;17.03;;;8.50;99.90;;;;;;5025855;28;20491;-60
2022/11/27 10:21:25;;;;;;;30.40;14.40;;;8.30;99.90;;;;;;5036442;28;20513;-60
2022/11/27 10:23:58;;;;;;;29.83;13.03;;;8.30;99.90;;;;;;5031322;28;20487;-61
2022/11/27 10:26:31;;;;;;;25.33;12.23;;;8.20;99.90;;;;;;5035588;28;20479;-61
2022/11/27 10:29:04;;;;;;;42.33;16.43;;;8.10;99.90;;;;;;5031445;28;20480;-62
2022/11/27 10:31:37;;;;;;;25.67;13.90;;;8.10;99.90;;;;;;5036701;28;20480;-61
2022/11/27 10:34:07;;;;;;;31.07;13.50;;;9.30;99.90;;;;;;5035495;28;21012;-62
2022/11/27 10:36:39;;;;;;;23.23;11.43;;;8.00;99.90;;;;;;5034982;28;20472;-61
2022/11/27 10:39:12;;;;;;;28.37;13.10;;;7.90;99.90;;;;;;5034670;28;20480;-62
2022/11/27 10:41:43;;;;;;;41.93;17.50;;;7.80;99.90;;;;;;5035080;28;20483;-62
2022/11/27 10:44:22;;;;;;;30.77;13.80;;;7.90;99.90;;;;;;5033919;28;20485;-62
2022/11/27 10:46:53;;;;;;;43.83;17.70;;;7.80;99.90;;;;;;5022021;28;20483;-61
2022/11/27 10:49:20;;;;;;;22.40;11.27;;;7.90;99.90;;;;;;5029988;28;20484;-61
2022/11/27 10:51:47;;;;;;;24.37;11.07;;;;;;;;;;5035931;28;20495;-61
2022/11/27 10:54:24;;;;;;;30.80;15.27;;;8.00;99.90;;;;;;5035803;28;20664;-61
2022/11/27 10:57:23;;;;;;;39.30;18.83;;;8.00;99.90;;;;;;5024586;28;20476;-62
2022/11/27 11:00:01;;;;;;;37.80;15.37;;;8.00;99.90;;;;;;5034756;28;20480;-61
2022/11/27 11:02:32;;;;;;;31.60;13.90;;;7.90;99.90;;;;;;5035968;28;20476;-61
2022/11/27 11:05:10;;;;;;;32.27;15.43;;;7.90;99.90;;;;;;5034632;28;20493;-62
2022/11/27 11:07:37;;;;;;;24.17;12.60;;;8.00;99.90;;;;;;5033631;28;20476;-61
2022/11/27 11:10:21;;;;;;;30.33;15.00;;;8.10;99.90;;;;;;5035223;28;20842;-61
2022/11/27 11:12:48;;;;;;;27.47;13.10;;;8.30;99.90;;;;;;5022108;28;20468;-60
2022/11/27 11:15:16;;;;;;;28.47;14.70;;;8.40;99.90;;;;;;5035529;28;20497;-62
2022/11/27 11:17:44;;;;;;;23.63;12.33;;;8.50;99.90;;;;;;5033783;28;20476;-63
2022/11/27 11:20:20;;;;;;;43.17;16.30;;;8.60;99.90;;;;;;5035317;28;20480;-62
2022/11/27 11:22:48;;;;;;;35.23;19.13;;;8.60;99.90;;;;;;5035739;28;20483;-62
2022/11/27 11:25:18;;;;;;;33.50;15.03;;;8.70;99.90;;;;;;5034430;28;20479;-62
2022/11/27 11:27:46;;;;;;;29.77;13.97;;;8.60;99.90;;;;;;5031112;28;20507;-62
2022/11/27 11:30:21;;;;;;;27.23;12.77;;;8.70;99.90;;;;;;5034466;28;20491;-62
2022/11/27 11:32:51;;;;;;;25.23;13.43;;;8.70;99.90;;;;;;5023174;28;20475;-62
2022/11/27 11:35:28;;;;;;;25.13;13.10;;;8.70;99.90;;;;;;5035219;28;20858;-62
2022/11/27 11:37:56;;;;;;;30.83;16.73;;;8.70;99.90;;;;;;5034967;28;20495;-62
2022/11/27 11:40:26;;;;;;;33.77;15.40;;;8.60;99.90;;;;;;5035228;28;20484;-61
2022/11/27 11:42:56;;;;;;;36.23;17.93;;;8.50;99.90;;;;;;5034052;28;20484;-61
2022/11/27 11:45:23;;;;;;;39.83;14.20;;;8.30;99.90;;;;;;5034659;28;20530;-61
2022/11/27 11:47:54;;;;;;;30.00;15.10;;;8.40;99.90;;;;;;5032596;28;20489;-61
2022/11/27 11:50:30;;;;;;;31.40;15.23;;;8.50;99.90;;;;;;5035050;28;20476;-61
2022/11/27 11:53:02;;;;;;;34.10;15.60;;;8.50;99.90;;;;;;5034795;28;20488;-61
2022/11/27 11:55:38;;;;;;;33.70;15.90;;;8.50;99.90;;;;;;5033551;28;20480;-61
2022/11/27 11:58:31;;;;;;;41.30;13.73;;;8.80;99.90;;;;;;5032301;28;20984;-61
2022/11/27 12:01:11;;;;;;;37.37;16.30;;;8.60;99.90;;;;;;5017015;28;21066;-61
2022/11/27 12:03:56;;;;;;;23.17;13.20;;;8.60;99.90;;;;;;5034523;28;20488;-61
2022/11/27 12:06:38;;;;;;;36.27;15.57;;;8.70;99.90;;;;;;5030284;28;20824;-61
2022/11/27 12:09:22;;;;;;;28.30;13.90;;;8.80;99.90;;;;;;5024823;28;20507;-61
2022/11/27 12:11:56;;;;;;;42.37;17.37;;;8.90;99.90;;;;;;5031450;28;20486;-60
2022/11/27 12:14:36;;;;;;;30.03;14.70;;;8.90;99.90;;;;;;5041234;28;20472;-60
2022/11/27 12:17:15;;;;;;;40.50;16.70;;;8.80;99.90;;;;;;5035234;28;20511;-62
2022/11/27 12:20:03;;;;;;;35.47;16.73;;;8.60;99.90;;;;;;5034110;28;20489;-61
2022/11/27 12:22:59;;;;;;;32.13;14.77;;;8.50;99.90;;;;;;5027589;28;20476;-61
2022/11/27 12:25:33;;;;;;;35.47;14.43;;;8.50;99.90;;;;;;5033823;28;20846;-61
2022/11/27 12:28:12;;;;;;;41.03;16.60;;;8.50;99.90;;;;;;5032365;28;20563;-61
2022/11/27 12:30:45;;;;;;;31.93;15.67;;;8.60;99.90;;;;;;5030928;28;20714;-61
2022/11/27 12:33:28;;;;;;;22.50;11.90;;;8.60;99.90;;;;;;5034187;28;20824;-61
2022/11/27 12:36:02;;;;;;;26.70;11.10;;;;;;;;;;5029784;28;20491;-60
2022/11/27 12:38:45;;;;;;;19.07;10.67;;;9.00;99.90;;;;;;5030657;28;20514;-61
2022/11/27 12:41:36;;;;;;;25.07;11.47;;;9.30;99.90;;;;;;5032545;28;20481;-61
2022/11/27 12:44:14;;;;;;;29.43;15.30;;;9.40;99.90;;;;;;5031047;28;21004;-61
2022/11/27 12:46:52;;;;;;;21.13;11.80;;;9.30;99.90;;;;;;5036751;28;21062;-62
2022/11/27 12:49:22;;;;;;;24.80;14.90;;;;;;;;;;5036713;28;21053;-62
2022/11/27 12:51:54;;;;;;;27.30;13.90;;;9.00;99.90;;;;;;5041940;28;20483;-61
2022/11/27 12:54:29;;;;;;;26.40;13.23;;;9.50;99.90;;;;;;5024420;28;20516;-61